Airfield :
LOGIN :

Register | Disclaimer

   EN    FR    IT 

 










Legend :    VFR   Marginal VFR   IFR   Intensive IFR   Very Intensive IFR
Visi :
Ceiling :
>= 8 km
>= 3000ft
5 to 8 km
1000 to 3000 ft
1500m to 5 km
500 to 1000 ft
800 to 1500m
200 to 500 ft
< 800m
< 200 ft
Symbols :   Thunderstorms  Fog  Heavy snow  Heavy precipitations  Wind > 20 kt
SIGMETs :     Misc.  Thunderstorms  Icing  Turbulence  Mountain Waves  Volcanic Ashes






- Airport Elevation : 80 ft
- IATA code : LPL


EGGP - Liverpool John Lennon

CURRENT METAR :
  • 081650Z 31008KT CAVOK 22/15 Q1022

EXPIRED METARs :
  • 081620Z 32009KT 9999 FEW048 22/15 Q1022
  • 081550Z 32010KT 9999 FEW048 21/14 Q1022
  • 081520Z 31010KT 9999 FEW048 22/15 Q1022
  • 081450Z 31010KT 9999 BKN040 23/14 Q1022
  • 081420Z 30011KT 9999 BKN040 22/15 Q1022

TAF TAF EGGP
Valid from the 08 at 12:00 until the 09 at 12:00 UTC


081057Z 0812/0912 30006KT 9999 SCT030
BECMG 0819/0822 08010KT
PROB30
TEMPO 0906/0912 8000 SHRA BKN014
ATIS : +44 151 907 2000 (option 5 or ext 5150)
Met : +44 871 750 5150



MET'MAP, your aeronautical weather chart ! - Copyright ORBIFLY December 2007 - Disclaimer

ORBIFLY MET'MAP TEAM :

Programming & Development : Alexandra Zaïnal
Concept & original design : Baudouin d'Aumeries
Assistance for programming : Marc-Olivier Méhu
Technical & hardware support : Manuel Goepfert

Contact : metmap@orbifly.com




SOURCES & CREDITS :

   NOAA